createdAt,value
2023-01-10T00:00:42.207Z,95506.09
2023-01-10T00:02:45.718Z,95551.03
2023-01-10T00:04:49.819Z,95576.84
2023-01-10T00:06:52.618Z,95562.59
2023-01-10T00:08:57.244Z,95575.22
2023-01-10T00:11:19.918Z,95581.34
2023-01-10T00:13:24.546Z,95579.50
2023-01-10T00:15:27.457Z,95587.06
2023-01-10T00:17:30.207Z,95581.13
2023-01-10T00:19:33.201Z,95581.03
2023-01-10T00:21:37.709Z,95590.03
2023-01-10T00:23:40.434Z,95585.31
2023-01-10T00:25:43.206Z,95598.03
2023-01-10T00:27:46.756Z,95601.69
2023-01-10T00:29:52.066Z,95609.72
2023-01-10T00:31:55.121Z,95600.19
2023-01-10T00:33:57.791Z,95611.50
2023-01-10T00:36:00.846Z,95616.69
2023-01-10T00:38:06.575Z,95523.16
2023-01-10T00:40:11.666Z,95627.88
2023-01-10T00:42:31.955Z,95623.34
2023-01-10T00:44:34.654Z,95628.56
2023-01-10T00:46:37.349Z,95628.97
2023-01-10T00:48:41.039Z,95638.25
2023-01-10T00:50:44.653Z,95641.75
2023-01-10T00:52:47.308Z,95636.25
2023-01-10T00:54:51.353Z,95643.56
2023-01-10T00:56:54.149Z,95618.50
2023-01-10T00:58:56.848Z,95643.31
2023-01-10T01:00:59.528Z,95651.06
2023-01-10T01:03:02.799Z,95653.88
2023-01-10T01:05:06.656Z,95660.78
2023-01-10T01:07:09.748Z,95669.06
2023-01-10T01:09:12.421Z,95669.28
2023-01-10T01:11:16.488Z,95524.38
2023-01-10T01:13:21.166Z,95662.41
2023-01-10T01:15:24.729Z,95684.66
2023-01-10T01:17:27.437Z,95687.47
2023-01-10T01:19:30.088Z,95695.34
2023-01-10T01:21:32.892Z,95696.66
2023-01-10T01:23:35.992Z,95710.25
2023-01-10T01:25:38.820Z,95724.63
2023-01-10T01:27:42.837Z,95720.91
2023-01-10T01:29:45.529Z,95665.66
2023-01-10T01:31:48.229Z,95734.81
2023-01-10T01:33:51.579Z,95730.75
2023-01-10T01:35:54.360Z,95753.59
2023-01-10T01:37:57.055Z,95745.63
2023-01-10T01:39:59.979Z,95759.31
2023-01-10T01:42:02.878Z,95729.09
2023-01-10T01:44:12.019Z,95769.91
2023-01-10T01:46:14.727Z,95774.16
2023-01-10T01:48:32.532Z,95692.59
2023-01-10T01:50:40.861Z,95793.59
2023-01-10T01:52:43.720Z,95791.16
2023-01-10T01:54:46.492Z,95720.16
2023-01-10T01:56:52.055Z,95798.06
2023-01-10T01:59:00.822Z,95808.28
2023-01-10T02:01:05.287Z,95815.84
2023-01-10T02:03:08.632Z,95808.72
2023-01-10T02:05:13.257Z,95792.97
2023-01-10T02:07:16.252Z,95800.56
2023-01-10T02:09:26.041Z,95815.22
2023-01-10T02:11:31.345Z,95821.78
2023-01-10T02:13:36.062Z,95814.00
2023-01-10T02:15:38.846Z,95824.63
2023-01-10T02:17:43.312Z,95817.47
2023-01-10T02:19:52.659Z,95827.06
2023-01-10T02:22:39.817Z,95828.91
2023-01-10T02:25:19.659Z,95828.69
2023-01-10T02:27:29.257Z,95844.22
2023-01-10T02:30:03.444Z,95833.19
2023-01-10T02:32:39.774Z,95835.41
2023-01-10T02:35:00.313Z,95850.56
2023-01-10T02:37:12.176Z,95836.84
2023-01-10T02:39:22.733Z,95865.63
2023-01-10T02:41:32.376Z,95858.66
2023-01-10T02:43:39.243Z,95886.88
2023-01-10T02:45:47.091Z,95876.06
2023-01-10T02:47:51.082Z,95866.25
2023-01-10T02:49:54.068Z,95878.47
2023-01-10T02:51:57.589Z,95886.63
2023-01-10T02:54:04.147Z,95866.22
2023-01-10T02:56:48.346Z,95890.78
2023-01-10T02:59:15.866Z,95900.97
2023-01-10T03:01:27.846Z,95916.50
2023-01-10T03:03:42.600Z,95847.44
2023-01-10T03:05:56.517Z,95920.56
2023-01-10T03:08:09.017Z,95923.66
2023-01-10T03:10:16.719Z,95900.78
2023-01-10T03:12:24.906Z,95927.94
2023-01-10T03:14:30.205Z,95930.78
2023-01-10T03:16:35.395Z,95918.94
2023-01-10T03:18:45.941Z,95936.91
2023-01-10T03:20:52.661Z,95938.53
2023-01-10T03:22:57.080Z,95903.34
2023-01-10T03:25:02.754Z,95942.53
2023-01-10T03:27:10.700Z,95956.91
2023-01-10T03:29:17.166Z,95958.13
2023-01-10T03:31:25.400Z,95993.63
2023-01-10T03:33:30.846Z,95969.50
2023-01-10T03:35:47.958Z,95943.53
2023-01-10T03:37:56.470Z,95978.06
2023-01-10T03:40:06.537Z,95979.72
2023-01-10T03:42:14.896Z,95980.53
2023-01-10T03:44:40.143Z,95967.44
2023-01-10T03:46:48.466Z,95985.41
2023-01-10T03:48:51.637Z,95989.69
2023-01-10T03:50:56.832Z,95994.38
2023-01-10T03:53:00.393Z,95986.66
2023-01-10T03:55:05.236Z,95993.66
2023-01-10T03:57:08.097Z,95998.59
2023-01-10T03:59:11.049Z,95981.63
2023-01-10T04:01:13.902Z,96014.03
2023-01-10T04:03:17.127Z,95997.88
2023-01-10T04:05:19.919Z,96024.72
2023-01-10T04:07:24.219Z,96028.34
2023-01-10T04:09:26.971Z,96025.50
2023-01-10T04:11:29.775Z,96037.44
2023-01-10T04:13:32.525Z,96039.78
2023-01-10T04:15:35.657Z,96045.13
2023-01-10T04:17:38.454Z,96043.25
2023-01-10T04:19:41.849Z,96045.50
2023-01-10T04:21:44.615Z,96044.28
2023-01-10T04:23:48.751Z,96023.78
2023-01-10T04:25:51.510Z,96058.13
2023-01-10T04:27:54.287Z,96070.38
2023-01-10T04:29:57.010Z,96071.16
2023-01-10T04:31:59.773Z,96056.06
2023-01-10T04:34:02.679Z,96073.28
2023-01-10T04:36:05.841Z,96082.78
2023-01-10T04:38:08.593Z,96077.94
2023-01-10T04:40:17.152Z,96089.97
2023-01-10T04:42:20.031Z,96097.78
2023-01-10T04:44:22.841Z,96089.59
2023-01-10T04:46:25.661Z,96095.50
2023-01-10T04:48:28.441Z,96087.78
2023-01-10T04:50:31.258Z,96105.53
2023-01-10T04:52:34.096Z,96047.63
2023-01-10T04:54:36.846Z,96124.84
2023-01-10T04:56:41.051Z,96113.53
2023-01-10T04:58:43.910Z,96111.03
2023-01-10T05:00:46.716Z,96120.44
2023-01-10T05:02:49.597Z,96115.00
2023-01-10T05:04:52.417Z,96124.78
2023-01-10T05:06:55.153Z,96122.28
2023-01-10T05:08:58.215Z,96128.25
2023-01-10T05:11:01.259Z,96135.59
2023-01-10T05:13:05.368Z,96121.84
2023-01-10T05:15:08.974Z,96152.81
2023-01-10T05:17:11.714Z,96151.94
2023-01-10T05:19:14.479Z,96164.75
2023-01-10T05:21:17.690Z,96156.25
2023-01-10T05:23:20.731Z,96171.91
2023-01-10T05:25:23.541Z,96162.56
2023-01-10T05:27:26.566Z,96143.47
2023-01-10T05:29:30.790Z,96173.75
2023-01-10T05:31:33.565Z,96167.47
2023-01-10T05:33:36.475Z,96165.81
2023-01-10T05:35:39.239Z,96164.47
2023-01-10T05:37:42.001Z,96171.44
2023-01-10T05:39:44.690Z,96178.00
2023-01-10T05:41:47.401Z,96186.56
2023-01-10T05:43:50.138Z,96184.94
2023-01-10T05:45:54.215Z,96186.53
2023-01-10T05:47:56.915Z,96188.31
2023-01-10T05:49:59.636Z,96181.59
2023-01-10T05:52:02.423Z,96188.94
2023-01-10T05:54:05.335Z,96191.25
2023-01-10T05:56:08.694Z,96219.59
2023-01-10T05:58:11.716Z,96206.84
2023-01-10T06:00:15.948Z,96205.09
2023-01-10T06:02:20.189Z,96212.50
2023-01-10T06:04:22.981Z,96213.41
2023-01-10T06:06:25.721Z,96206.41
2023-01-10T06:08:28.473Z,96199.13
2023-01-10T06:10:31.172Z,96210.06
2023-01-10T06:12:33.880Z,96208.44
2023-01-10T06:14:36.585Z,96215.31
2023-01-10T06:16:39.350Z,96204.13
2023-01-10T06:18:43.421Z,96218.66
2023-01-10T06:20:46.280Z,96208.13
2023-01-10T06:22:49.070Z,96213.66
2023-01-10T06:24:51.768Z,96235.38
2023-01-10T06:26:54.448Z,96235.97
2023-01-10T06:28:58.179Z,96230.97
2023-01-10T06:31:00.950Z,96230.16
2023-01-10T06:33:04.098Z,96230.22
2023-01-10T06:35:08.739Z,96233.63
2023-01-10T06:37:11.438Z,96234.94
2023-01-10T06:39:14.171Z,96234.69
2023-01-10T06:41:16.895Z,96237.13
2023-01-10T06:43:19.641Z,96236.81
2023-01-10T06:45:22.538Z,96258.31
2023-01-10T06:47:25.272Z,96265.66
2023-01-10T06:49:27.983Z,96283.50
2023-01-10T06:51:32.106Z,96199.75
2023-01-10T06:53:34.876Z,96278.84
2023-01-10T06:55:37.592Z,96279.66
2023-01-10T06:57:40.367Z,96288.44
2023-01-10T06:59:43.103Z,96279.06
2023-01-10T07:01:45.975Z,96270.44
2023-01-10T07:03:49.178Z,96294.81
2023-01-10T07:05:52.091Z,96303.63
2023-01-10T07:07:57.897Z,96314.88
2023-01-10T07:10:00.708Z,96310.56
2023-01-10T07:12:03.629Z,96322.41
2023-01-10T07:14:06.585Z,96321.19
2023-01-10T07:16:11.956Z,96335.50
2023-01-10T07:18:14.688Z,96326.31
2023-01-10T07:20:17.959Z,96317.13
2023-01-10T07:22:20.673Z,96314.91
2023-01-10T07:24:24.723Z,96315.13
2023-01-10T07:26:27.439Z,96275.41
2023-01-10T07:28:30.183Z,96306.13
2023-01-10T07:30:32.909Z,96322.28
2023-01-10T07:32:35.639Z,96326.97
2023-01-10T07:34:38.492Z,96324.91
2023-01-10T07:36:41.261Z,96334.28
2023-01-10T07:38:44.139Z,96341.88
2023-01-10T07:40:48.282Z,96357.19
2023-01-10T07:42:51.129Z,96357.63
2023-01-10T07:44:53.920Z,96352.09
2023-01-10T07:46:56.659Z,96364.44
2023-01-10T07:48:59.396Z,96374.91
2023-01-10T07:51:02.539Z,96371.41
2023-01-10T07:53:08.294Z,96367.75
2023-01-10T07:55:11.100Z,96373.13
2023-01-10T07:57:15.685Z,96372.09
2023-01-10T07:59:18.523Z,96386.19
2023-01-10T08:01:21.312Z,96384.78
2023-01-10T08:03:24.860Z,96385.41
2023-01-10T08:05:27.972Z,96385.38
2023-01-10T08:07:31.089Z,96380.06
2023-01-10T08:09:33.780Z,96388.84
2023-01-10T08:11:36.552Z,96384.16
2023-01-10T08:13:40.666Z,96378.66
2023-01-10T08:15:43.432Z,96372.34
2023-01-10T08:17:46.206Z,96376.03
2023-01-10T08:19:49.394Z,96365.34
2023-01-10T08:21:52.115Z,96347.91
2023-01-10T08:23:55.366Z,96390.34
2023-01-10T08:25:59.636Z,96386.28
2023-01-10T08:28:02.438Z,96393.63
2023-01-10T08:30:07.761Z,96402.19
2023-01-10T08:32:11.109Z,96403.41
2023-01-10T08:34:14.476Z,96407.50
2023-01-10T08:36:18.589Z,96414.88
2023-01-10T08:38:21.308Z,96398.28
2023-01-10T08:40:24.042Z,96423.09
2023-01-10T08:42:26.843Z,96410.03
2023-01-10T08:44:29.553Z,96418.63
2023-01-10T08:46:33.712Z,96405.34
2023-01-10T08:48:36.809Z,96405.03
2023-01-10T08:50:39.529Z,96430.94
2023-01-10T08:52:44.407Z,96440.56
2023-01-10T08:54:47.206Z,96440.78
2023-01-10T08:56:49.962Z,96438.16
2023-01-10T08:58:52.707Z,96437.78
2023-01-10T09:00:55.488Z,96425.53
2023-01-10T09:02:59.618Z,96441.91
2023-01-10T09:05:02.388Z,96448.66
2023-01-10T09:07:05.161Z,96444.34
2023-01-10T09:09:08.039Z,96451.72
2023-01-10T09:11:10.767Z,96433.91
2023-01-10T09:13:13.645Z,96464.63
2023-01-10T09:15:16.593Z,96464.66
2023-01-10T09:17:19.344Z,96464.66
2023-01-10T09:19:23.437Z,96467.72
2023-01-10T09:21:26.198Z,96457.72
2023-01-10T09:23:28.893Z,96456.09
2023-01-10T09:25:31.665Z,96468.59
2023-01-10T09:27:34.883Z,96457.34
2023-01-10T09:29:37.971Z,96429.22
2023-01-10T09:31:40.767Z,96463.09
2023-01-10T09:33:47.151Z,96477.25
2023-01-10T09:35:51.681Z,96465.63
2023-01-10T09:37:55.381Z,96470.75
2023-01-10T09:39:58.085Z,96481.59
2023-01-10T09:42:12.530Z,96482.22
2023-01-10T09:44:21.573Z,96489.00
2023-01-10T09:46:34.917Z,96491.44
2023-01-10T09:48:48.761Z,96494.66
2023-01-10T09:51:11.582Z,96501.28
2023-01-10T09:53:19.654Z,96508.66
2023-01-10T09:55:28.010Z,96506.03
2023-01-10T09:57:30.772Z,96509.31
2023-01-10T09:59:38.924Z,96512.38
2023-01-10T10:01:41.692Z,96502.63
2023-01-10T10:03:50.076Z,96503.44
2023-01-10T10:06:03.794Z,96500.97
2023-01-10T10:08:18.520Z,96497.69
2023-01-10T10:10:25.210Z,96484.78
2023-01-10T10:12:33.958Z,96494.00
2023-01-10T10:14:58.276Z,96491.13
2023-01-10T10:17:16.658Z,96496.03
2023-01-10T10:19:26.621Z,96500.34
2023-01-10T10:21:41.214Z,96500.13
2023-01-10T10:24:01.955Z,96531.72
2023-01-10T10:26:13.651Z,96512.66
2023-01-10T10:28:53.510Z,96512.88
2023-01-10T10:31:10.988Z,96516.34
2023-01-10T10:33:35.371Z,96512.03
2023-01-10T10:35:42.411Z,96506.31
2023-01-10T10:37:51.163Z,96496.88
2023-01-10T10:39:57.263Z,96492.34
2023-01-10T10:42:01.232Z,96494.22
2023-01-10T10:44:31.864Z,96494.19
2023-01-10T10:46:34.637Z,96498.47
2023-01-10T10:48:43.147Z,96501.56
2023-01-10T10:50:53.482Z,96501.97
2023-01-10T10:52:57.737Z,96499.72
2023-01-10T10:55:00.512Z,96494.41
2023-01-10T10:57:03.332Z,96479.84
2023-01-10T10:59:06.653Z,96501.78
2023-01-10T11:01:14.344Z,96495.59
2023-01-10T11:03:28.257Z,96432.50
2023-01-10T11:05:36.727Z,96498.91
2023-01-10T11:07:39.495Z,96499.94
2023-01-10T11:09:44.241Z,96499.13
2023-01-10T11:11:52.273Z,96494.00
2023-01-10T11:13:57.636Z,96497.25
2023-01-10T11:16:01.255Z,96490.72
2023-01-10T11:18:06.359Z,96493.59
2023-01-10T11:20:17.621Z,96496.47
2023-01-10T11:22:20.936Z,96511.22
2023-01-10T11:24:30.588Z,96516.34
2023-01-10T11:26:40.536Z,96520.25
2023-01-10T11:28:45.763Z,96501.16
2023-01-10T11:30:50.444Z,96520.84
2023-01-10T11:32:55.442Z,96463.66
2023-01-10T11:35:01.411Z,96473.25
2023-01-10T11:37:06.502Z,96491.91
2023-01-10T11:39:16.968Z,96516.97
2023-01-10T11:41:31.505Z,96510.81
2023-01-10T11:43:38.262Z,96508.50
2023-01-10T11:45:43.498Z,96498.16
2023-01-10T11:47:50.165Z,96500.59
2023-01-10T11:49:53.153Z,96483.03
2023-01-10T11:52:01.900Z,96483.38
2023-01-10T11:54:08.140Z,96472.03
2023-01-10T11:56:13.901Z,96481.66
2023-01-10T11:58:16.837Z,96490.00
2023-01-10T12:00:22.124Z,96485.78
2023-01-10T12:02:28.421Z,96492.56
2023-01-10T12:04:35.387Z,96332.06
2023-01-10T12:06:45.700Z,96497.16
2023-01-10T12:08:49.868Z,96488.09
2023-01-10T12:10:59.319Z,96503.63
2023-01-10T12:13:15.537Z,96497.06
2023-01-10T12:15:27.846Z,96486.38
2023-01-10T12:17:32.415Z,96473.22
2023-01-10T12:19:35.217Z,96473.97
2023-01-10T12:21:41.313Z,96465.25
2023-01-10T12:23:47.502Z,96475.47
2023-01-10T12:25:55.112Z,96434.47
2023-01-10T12:28:01.825Z,96471.13
2023-01-10T12:30:08.085Z,96445.13
2023-01-10T12:32:21.132Z,96466.63
2023-01-10T12:34:27.513Z,96460.66
2023-01-10T12:36:44.655Z,96448.16
2023-01-10T12:39:04.674Z,96470.72
2023-01-10T12:41:10.263Z,96458.88
2023-01-10T12:43:35.582Z,96454.41
2023-01-10T12:45:46.287Z,96321.69
2023-01-10T12:48:04.018Z,96456.47
2023-01-10T12:50:14.701Z,96451.13
2023-01-10T12:52:23.488Z,96454.00
2023-01-10T12:54:29.512Z,96431.25
2023-01-10T12:56:33.422Z,96452.63
2023-01-10T12:58:43.002Z,96438.34
2023-01-10T13:00:49.309Z,96456.41
2023-01-10T13:02:56.177Z,96454.56
2023-01-10T13:05:04.121Z,96462.91
2023-01-10T13:07:07.295Z,96459.34
2023-01-10T13:09:17.137Z,96452.53
2023-01-10T13:11:23.435Z,96436.16
2023-01-10T13:13:34.418Z,96416.50
2023-01-10T13:15:40.149Z,96447.22
2023-01-10T13:17:46.417Z,96441.19
2023-01-10T13:20:21.816Z,96439.84
2023-01-10T13:22:25.970Z,96435.66
2023-01-10T13:24:29.374Z,96441.03
2023-01-10T13:26:52.315Z,96438.19
2023-01-10T13:28:57.556Z,96430.38
2023-01-10T13:31:02.271Z,96435.66
2023-01-10T13:33:07.733Z,96413.59
2023-01-10T13:35:14.741Z,96433.59
2023-01-10T13:37:24.674Z,96431.34
2023-01-10T13:39:35.326Z,96434.63
2023-01-10T13:42:30.898Z,96424.81
2023-01-10T13:45:13.413Z,96415.00
2023-01-10T13:47:55.650Z,96428.03
2023-01-10T13:49:58.450Z,96424.81
2023-01-10T13:52:40.776Z,96422.75
2023-01-10T13:54:58.257Z,96360.09
2023-01-10T13:57:00.988Z,96435.41
2023-01-10T13:59:24.004Z,96429.44
2023-01-10T14:01:46.541Z,96420.72
2023-01-10T14:03:53.855Z,96422.88
2023-01-10T14:05:56.661Z,96432.00
2023-01-10T14:07:59.748Z,96436.38
2023-01-10T14:10:06.784Z,96409.84
2023-01-10T14:12:20.332Z,96376.63
2023-01-10T14:14:26.999Z,96454.25
2023-01-10T14:16:34.233Z,96450.56
2023-01-10T14:18:41.831Z,96454.34
2023-01-10T14:20:45.543Z,96459.25
2023-01-10T14:23:01.504Z,96443.94
2023-01-10T14:25:08.909Z,96445.50
2023-01-10T14:27:16.029Z,96456.31
2023-01-10T14:29:20.717Z,96447.38
2023-01-10T14:31:26.197Z,96462.28
2023-01-10T14:33:29.433Z,96446.81
2023-01-10T14:35:38.340Z,96444.47
2023-01-10T14:37:45.335Z,96449.00
2023-01-10T14:39:49.339Z,96444.09
2023-01-10T14:41:57.317Z,96418.38
2023-01-10T14:44:03.710Z,96434.75
2023-01-10T14:46:13.689Z,96443.00
2023-01-10T14:48:24.736Z,96431.75
2023-01-10T14:50:32.260Z,96439.94
2023-01-10T14:52:35.302Z,96430.72
2023-01-10T14:54:38.170Z,96395.91
2023-01-10T14:56:42.828Z,96347.13
2023-01-10T14:58:46.999Z,96394.25
2023-01-10T15:00:51.290Z,96409.81
2023-01-10T15:02:54.222Z,96402.84
2023-01-10T15:04:59.662Z,96391.81
2023-01-10T15:07:10.767Z,96344.31
2023-01-10T15:09:15.609Z,96352.91
2023-01-10T15:11:19.043Z,96383.41
2023-01-10T15:13:26.336Z,96381.56
2023-01-10T15:15:34.335Z,96375.00
2023-01-10T15:17:38.170Z,96353.34
2023-01-10T15:19:41.577Z,96385.66
2023-01-10T15:21:46.547Z,96386.09
2023-01-10T15:23:50.320Z,96376.66
2023-01-10T15:25:58.539Z,96388.97
2023-01-10T15:28:02.729Z,96376.25
2023-01-10T15:30:09.979Z,96379.34
2023-01-10T15:32:24.053Z,96384.88
2023-01-10T15:34:30.687Z,96382.44
2023-01-10T15:36:33.642Z,96371.56
2023-01-10T15:38:39.203Z,96243.63
2023-01-10T15:40:43.610Z,96357.66
2023-01-10T15:42:46.474Z,96363.19
2023-01-10T15:44:53.356Z,96366.47
2023-01-10T15:46:56.964Z,96246.09
2023-01-10T15:49:04.281Z,96364.25
2023-01-10T15:51:15.891Z,96359.91
2023-01-10T15:53:18.648Z,96356.63
2023-01-10T15:55:36.326Z,96349.69
2023-01-10T15:57:39.139Z,96347.63
2023-01-10T15:59:47.411Z,96352.97
2023-01-10T16:01:55.561Z,96350.31
2023-01-10T16:04:02.489Z,96354.19
2023-01-10T16:06:09.679Z,96349.09
2023-01-10T16:08:12.929Z,96345.59
2023-01-10T16:10:20.897Z,96303.41
2023-01-10T16:12:46.803Z,96291.13
2023-01-10T16:14:49.528Z,96345.41
2023-01-10T16:16:52.461Z,96327.59
2023-01-10T16:18:55.244Z,96319.78
2023-01-10T16:21:02.481Z,96335.78
2023-01-10T16:23:08.868Z,96325.13
2023-01-10T16:25:17.663Z,96334.94
2023-01-10T16:27:20.971Z,96283.75
2023-01-10T16:29:25.139Z,96312.84
2023-01-10T16:31:27.956Z,96309.16
2023-01-10T16:33:30.801Z,96205.94
2023-01-10T16:35:33.585Z,96225.59
2023-01-10T16:37:37.785Z,96309.75
2023-01-10T16:39:40.785Z,96326.75
2023-01-10T16:42:01.494Z,96325.53
2023-01-10T16:44:04.305Z,96285.78
2023-01-10T16:46:06.984Z,96325.94
2023-01-10T16:48:10.540Z,96303.41
2023-01-10T16:50:13.714Z,96322.03
2023-01-10T16:52:16.527Z,96319.59
2023-01-10T16:54:22.288Z,96326.94
2023-01-10T16:56:26.706Z,96326.13
2023-01-10T16:58:29.395Z,96327.38
2023-01-10T17:00:32.160Z,96322.25
2023-01-10T17:02:34.963Z,96308.94
2023-01-10T17:04:40.057Z,96316.09
2023-01-10T17:06:42.954Z,96311.81
2023-01-10T17:08:46.081Z,96310.56
2023-01-10T17:10:53.567Z,96312.63
2023-01-10T17:12:56.468Z,96310.78
2023-01-10T17:14:59.769Z,96303.41
2023-01-10T17:17:05.465Z,96314.06
2023-01-10T17:19:09.317Z,96287.81
2023-01-10T17:21:17.000Z,96102.78
2023-01-10T17:23:19.704Z,96302.19
2023-01-10T17:25:22.570Z,96305.84
2023-01-10T17:27:26.655Z,96305.03
2023-01-10T17:29:30.257Z,96309.53
2023-01-10T17:31:33.035Z,96224.75
2023-01-10T17:33:36.037Z,96299.50
2023-01-10T17:35:40.714Z,96293.56
2023-01-10T17:37:43.489Z,96287.84
2023-01-10T17:39:46.234Z,96280.06
2023-01-10T17:41:49.291Z,96291.31
2023-01-10T17:43:53.473Z,96236.22
2023-01-10T17:45:58.738Z,96277.19
2023-01-10T17:48:01.521Z,96302.19
2023-01-10T17:50:04.736Z,96294.81
2023-01-10T17:52:07.442Z,96268.19
2023-01-10T17:54:10.233Z,96266.31
2023-01-10T17:56:13.250Z,96291.09
2023-01-10T17:58:16.851Z,96292.72
2023-01-10T18:00:21.308Z,96284.75
2023-01-10T18:02:24.207Z,96287.84
2023-01-10T18:04:27.046Z,96288.84
2023-01-10T18:06:30.017Z,96243.59
2023-01-10T18:08:32.744Z,96288.84
2023-01-10T18:10:35.475Z,96270.22
2023-01-10T18:12:38.887Z,96285.78
2023-01-10T18:14:41.581Z,96278.41
2023-01-10T18:16:45.637Z,96230.31
2023-01-10T18:18:48.349Z,96278.84
2023-01-10T18:20:52.999Z,96223.97
2023-01-10T18:23:13.383Z,96264.50
2023-01-10T18:25:17.524Z,96244.44
2023-01-10T18:27:20.298Z,96259.81
2023-01-10T18:29:23.069Z,96241.38
2023-01-10T18:31:26.193Z,96231.56
2023-01-10T18:33:30.292Z,96264.94
2023-01-10T18:35:33.181Z,96264.91
2023-01-10T18:37:35.891Z,96254.28
2023-01-10T18:39:38.652Z,96256.94
2023-01-10T18:41:41.378Z,96255.31
2023-01-10T18:43:44.209Z,96195.34
2023-01-10T18:45:48.358Z,96145.41
2023-01-10T18:47:51.848Z,96193.28
2023-01-10T18:49:55.930Z,96190.03
2023-01-10T18:51:58.643Z,96230.94
2023-01-10T18:54:01.441Z,96222.34
2023-01-10T18:56:05.692Z,96231.56
2023-01-10T18:58:09.620Z,96229.50
2023-01-10T19:00:13.551Z,96227.25
2023-01-10T19:02:20.339Z,96220.09
2023-01-10T19:04:25.472Z,96227.88
2023-01-10T19:06:29.773Z,96217.44
2023-01-10T19:08:32.871Z,96208.44
2023-01-10T19:11:00.072Z,96182.44
2023-01-10T19:12:59.054Z,96218.66
2023-01-10T19:15:02.041Z,95681.41
2023-01-10T19:17:04.813Z,96185.50
2023-01-10T19:19:09.550Z,96225.00
2023-01-10T19:21:15.851Z,96218.66
2023-01-10T19:23:19.948Z,96215.38
2023-01-10T19:25:22.805Z,96209.25
2023-01-10T19:27:26.194Z,96226.84
2023-01-10T19:29:30.366Z,96211.28
2023-01-10T19:31:33.674Z,96215.59
2023-01-10T19:33:37.508Z,96218.25
2023-01-10T19:35:43.629Z,96196.16
2023-01-10T19:37:46.368Z,96192.88
2023-01-10T19:39:50.487Z,96218.25
2023-01-10T19:41:53.544Z,96158.91
2023-01-10T19:43:57.980Z,96182.66
2023-01-10T19:46:01.182Z,96178.56
2023-01-10T19:48:03.990Z,96193.28
2023-01-10T19:50:07.269Z,96192.03
2023-01-10T19:52:10.604Z,96191.25
2023-01-10T19:54:13.362Z,96159.31
2023-01-10T19:56:21.822Z,96182.03
2023-01-10T19:58:24.634Z,96140.50
2023-01-10T20:00:27.432Z,96191.84
2023-01-10T20:02:30.243Z,96185.31
2023-01-10T20:04:32.958Z,96145.81
2023-01-10T20:06:38.446Z,96143.56
2023-01-10T20:08:41.385Z,96137.63
2023-01-10T20:10:44.129Z,96166.28
2023-01-10T20:12:48.275Z,96175.69
2023-01-10T20:14:51.700Z,96181.00
2023-01-10T20:16:54.529Z,96108.19
2023-01-10T20:18:57.274Z,96148.28
2023-01-10T20:21:01.356Z,96175.47
2023-01-10T20:23:06.023Z,96155.22
2023-01-10T20:25:09.670Z,96181.00
2023-01-10T20:27:12.441Z,96134.38
2023-01-10T20:29:16.981Z,96172.81
2023-01-10T20:31:23.015Z,96122.91
2023-01-10T20:33:26.855Z,96178.53
2023-01-10T20:35:30.739Z,96156.44
2023-01-10T20:37:33.626Z,96174.03
2023-01-10T20:39:36.334Z,96173.63
2023-01-10T20:41:39.054Z,96166.25
2023-01-10T20:43:41.953Z,96127.41
2023-01-10T20:45:46.059Z,96169.09
2023-01-10T20:47:51.246Z,96098.97
2023-01-10T20:49:54.002Z,96173.22
2023-01-10T20:51:57.017Z,96169.09
2023-01-10T20:54:01.082Z,96170.53
2023-01-10T20:56:04.811Z,96157.44
2023-01-10T20:58:08.161Z,96170.34
2023-01-10T21:00:12.254Z,96151.94
2023-01-10T21:02:16.432Z,96156.22
2023-01-10T21:04:19.251Z,96138.81
2023-01-10T21:06:22.496Z,96155.16
2023-01-10T21:08:26.038Z,96151.28
2023-01-10T21:10:28.875Z,96115.69
2023-01-10T21:12:32.950Z,96130.22
2023-01-10T21:14:35.713Z,96156.38
2023-01-10T21:16:38.468Z,96151.88
2023-01-10T21:18:44.446Z,96148.41
2023-01-10T21:20:48.155Z,96146.97
2023-01-10T21:22:50.940Z,96146.56
2023-01-10T21:24:53.678Z,96135.72
2023-01-10T21:26:56.412Z,96149.22
2023-01-10T21:28:59.119Z,96098.31
2023-01-10T21:31:01.908Z,96145.75
2023-01-10T21:33:05.509Z,96153.13
2023-01-10T21:35:09.802Z,96140.41
2023-01-10T21:37:12.557Z,96127.53
2023-01-10T21:39:15.317Z,96142.88
2023-01-10T21:41:40.098Z,96147.16
2023-01-10T21:43:44.465Z,96140.41
2023-01-10T21:45:47.441Z,96136.09
2023-01-10T21:47:50.497Z,96149.41
2023-01-10T21:49:53.306Z,96146.09
2023-01-10T21:51:57.777Z,96136.25
2023-01-10T21:54:00.496Z,96148.16
2023-01-10T21:56:03.249Z,96140.59
2023-01-10T21:58:06.035Z,96125.22
2023-01-10T22:00:11.244Z,96129.50
2023-01-10T22:02:19.768Z,96125.41
2023-01-10T22:04:22.546Z,96117.03
2023-01-10T22:06:25.293Z,96071.66
2023-01-10T22:08:29.358Z,96124.41
2023-01-10T22:10:32.066Z,96126.44
2023-01-10T22:12:36.620Z,96093.53
2023-01-10T22:14:39.378Z,96096.81
2023-01-10T22:16:42.198Z,96106.22
2023-01-10T22:18:45.671Z,96119.88
2023-01-10T22:20:48.523Z,96112.31
2023-01-10T22:22:51.228Z,96131.53
2023-01-10T22:24:55.317Z,96039.38
2023-01-10T22:26:58.276Z,96127.25
2023-01-10T22:29:01.016Z,96119.66
2023-01-10T22:31:04.835Z,96112.75
2023-01-10T22:33:07.584Z,96128.66
2023-01-10T22:35:13.631Z,96113.13
2023-01-10T22:37:16.940Z,96091.50
2023-01-10T22:39:19.687Z,96061.81
2023-01-10T22:41:26.606Z,96106.75
2023-01-10T22:43:29.496Z,96109.19
2023-01-10T22:45:32.324Z,96107.53
2023-01-10T22:47:35.187Z,96110.59
2023-01-10T22:49:38.607Z,96110.97
2023-01-10T22:51:41.591Z,96103.84
2023-01-10T22:53:44.774Z,96086.25
2023-01-10T22:55:47.751Z,96101.13
2023-01-10T22:57:51.899Z,96099.69
2023-01-10T22:59:54.630Z,96093.94
2023-01-10T23:01:57.517Z,96103.94
2023-01-10T23:04:00.470Z,96034.47
2023-01-10T23:06:03.267Z,96101.25
2023-01-10T23:08:06.551Z,96101.50
2023-01-10T23:10:28.385Z,96096.78
2023-01-10T23:12:31.834Z,96075.13
2023-01-10T23:14:36.547Z,96078.38
2023-01-10T23:16:39.379Z,96088.16
2023-01-10T23:18:42.408Z,96082.88
2023-01-10T23:20:45.187Z,96083.09
2023-01-10T23:22:48.036Z,96081.72
2023-01-10T23:24:50.822Z,96068.22
2023-01-10T23:26:53.613Z,96088.41
2023-01-10T23:28:56.564Z,96085.91
2023-01-10T23:31:00.733Z,96074.63
2023-01-10T23:33:03.563Z,96079.75
2023-01-10T23:35:06.897Z,96079.09
2023-01-10T23:37:09.681Z,96069.66
2023-01-10T23:39:12.453Z,96072.53
2023-01-10T23:41:15.270Z,96086.41
2023-01-10T23:43:18.120Z,96058.81
2023-01-10T23:45:20.844Z,96075.84
2023-01-10T23:47:24.999Z,96025.31
2023-01-10T23:49:27.748Z,96081.50
2023-01-10T23:51:30.582Z,96075.97
2023-01-10T23:53:33.415Z,96065.53
2023-01-10T23:55:36.319Z,96025.25
2023-01-10T23:57:39.091Z,96069.56
2023-01-10T23:59:41.863Z,96041.19
